createdAt,value
2019-04-01T00:00:47.487Z,39.42
2019-04-01T00:01:57.133Z,39.41
2019-04-01T00:03:07.797Z,39.35
2019-04-01T00:04:15.967Z,39.27
2019-04-01T00:05:23.995Z,39.27
2019-04-01T00:06:32.082Z,39.36
2019-04-01T00:07:40.382Z,39.32
2019-04-01T00:08:48.514Z,39.56
2019-04-01T00:09:56.673Z,39.68
2019-04-01T00:11:05.577Z,39.82
2019-04-01T00:12:13.924Z,39.99
2019-04-01T00:13:22.302Z,39.97
2019-04-01T00:14:30.389Z,40.02
2019-04-01T00:15:38.419Z,40.14
2019-04-01T00:16:46.427Z,40.06
2019-04-01T00:17:54.973Z,40.19
2019-04-01T00:19:04.415Z,40.33
2019-04-01T00:20:14.109Z,40.64
2019-04-01T00:21:22.229Z,40.75
2019-04-01T00:22:30.441Z,40.73
2019-04-01T00:23:38.571Z,41.03
2019-04-01T00:24:46.783Z,41.10
2019-04-01T00:25:55.300Z,41.17
2019-04-01T00:27:03.354Z,41.04
2019-04-01T00:28:11.798Z,41.13
2019-04-01T00:29:20.055Z,40.88
2019-04-01T00:30:28.366Z,40.94
2019-04-01T00:31:36.451Z,40.91
2019-04-01T00:32:44.543Z,40.93
2019-04-01T00:33:52.451Z,40.82
2019-04-01T00:35:01.046Z,40.64
2019-04-01T00:36:09.535Z,40.60
2019-04-01T00:37:17.532Z,40.83
2019-04-01T00:38:25.382Z,40.83
2019-04-01T00:39:33.240Z,40.80
2019-04-01T00:40:41.112Z,40.74
2019-04-01T00:41:56.195Z,40.63
2019-04-01T00:43:09.001Z,40.53
2019-04-01T00:44:17.718Z,40.41
2019-04-01T00:45:27.342Z,40.33
2019-04-01T00:46:35.423Z,40.21
2019-04-01T00:47:43.668Z,40.33
2019-04-01T00:48:51.835Z,40.08
2019-04-01T00:50:00.233Z,40.02
2019-04-01T00:51:08.731Z,40.12
2019-04-01T00:52:16.856Z,40.11
2019-04-01T00:53:24.971Z,40.16
2019-04-01T00:54:33.225Z,39.97
2019-04-01T00:55:41.444Z,39.96
2019-04-01T00:56:49.453Z,39.72
2019-04-01T00:57:57.512Z,39.74
2019-04-01T00:59:05.939Z,39.69
2019-04-01T01:00:15.037Z,39.77
2019-04-01T01:01:23.424Z,39.56
2019-04-01T01:02:31.394Z,39.38
2019-04-01T01:03:39.646Z,39.21
2019-04-01T01:04:47.762Z,39.55
2019-04-01T01:05:56.289Z,39.43
2019-04-01T01:07:04.351Z,39.22
2019-04-01T01:08:12.905Z,39.20
2019-04-01T01:09:21.111Z,39.19
2019-04-01T01:10:29.284Z,38.84
2019-04-01T01:11:37.337Z,38.85
2019-04-01T01:12:45.534Z,38.75
2019-04-01T01:13:54.150Z,38.65
2019-04-01T01:15:02.345Z,38.34
2019-04-01T01:16:10.442Z,38.62
2019-04-01T01:17:19.949Z,38.30
2019-04-01T01:18:28.015Z,38.22
2019-04-01T01:19:35.983Z,38.14
2019-04-01T01:20:44.575Z,38.30
2019-04-01T01:21:52.793Z,38.17
2019-04-01T01:23:00.733Z,38.18
2019-04-01T01:24:08.953Z,38.17
2019-04-01T01:25:17.191Z,38.07
2019-04-01T01:26:25.398Z,38.03
2019-04-01T01:27:33.324Z,38.20
2019-04-01T01:28:41.449Z,38.30
2019-04-01T01:29:49.376Z,38.19
2019-04-01T01:30:57.476Z,38.34
2019-04-01T01:32:05.754Z,38.54
2019-04-01T01:33:14.664Z,38.61
2019-04-01T01:34:22.778Z,38.56
2019-04-01T01:35:30.711Z,38.69
2019-04-01T01:36:38.585Z,38.88
2019-04-01T01:37:46.543Z,38.88
2019-04-01T01:38:54.399Z,39.05
2019-04-01T01:40:02.483Z,39.17
2019-04-01T01:41:10.777Z,39.30
2019-04-01T01:42:18.925Z,39.36
2019-04-01T01:43:27.007Z,39.38
2019-04-01T01:44:34.903Z,39.54
2019-04-01T01:45:42.956Z,39.67
2019-04-01T01:46:51.305Z,39.58
2019-04-01T01:47:59.232Z,39.48
2019-04-01T01:49:07.230Z,39.48
2019-04-01T01:50:15.502Z,39.42
2019-04-01T01:51:23.479Z,39.68
2019-04-01T01:52:31.330Z,39.75
2019-04-01T01:53:41.628Z,40.03
2019-04-01T01:54:49.007Z,40.06
2019-04-01T01:55:56.963Z,40.04
2019-04-01T01:57:05.002Z,40.12
2019-04-01T01:58:13.088Z,40.07
2019-04-01T01:59:21.197Z,39.91
2019-04-01T02:00:30.213Z,39.92
2019-04-01T02:01:38.163Z,40.14
2019-04-01T02:02:46.008Z,40.26
2019-04-01T02:03:53.905Z,40.29
2019-04-01T02:05:01.776Z,40.16
2019-04-01T02:06:09.819Z,40.19
2019-04-01T02:07:18.340Z,40.28
2019-04-01T02:08:26.266Z,40.37
2019-04-01T02:09:34.473Z,40.46
2019-04-01T02:10:42.589Z,40.45
2019-04-01T02:11:50.436Z,40.47
2019-04-01T02:12:59.155Z,40.48
2019-04-01T02:14:07.161Z,40.51
2019-04-01T02:15:15.321Z,40.52
2019-04-01T02:16:23.353Z,40.65
2019-04-01T02:17:31.382Z,40.58
2019-04-01T02:18:39.373Z,40.55
2019-04-01T02:19:47.544Z,40.54
2019-04-01T02:20:55.454Z,40.67
2019-04-01T02:22:03.561Z,40.63
2019-04-01T02:23:11.570Z,40.57
2019-04-01T02:24:19.945Z,40.67
2019-04-01T02:25:28.158Z,40.66
2019-04-01T02:26:36.046Z,40.65
2019-04-01T02:27:43.956Z,40.75
2019-04-01T02:28:52.210Z,40.99
2019-04-01T02:30:00.036Z,40.99
2019-04-01T02:31:08.293Z,41.06
2019-04-01T02:32:16.363Z,41.14
2019-04-01T02:33:24.607Z,41.07
2019-04-01T02:34:34.258Z,41.10
2019-04-01T02:35:42.310Z,41.17
2019-04-01T02:36:50.435Z,41.22
2019-04-01T02:37:58.650Z,41.16
2019-04-01T02:39:09.801Z,41.25
2019-04-01T02:40:21.717Z,41.32
2019-04-01T02:41:27.720Z,41.25
2019-04-01T02:42:35.939Z,41.38
2019-04-01T02:43:44.052Z,41.62
2019-04-01T02:44:52.280Z,41.78
2019-04-01T02:46:00.400Z,41.67
2019-04-01T02:47:08.470Z,41.76
2019-04-01T02:48:16.802Z,41.62
2019-04-01T02:49:24.809Z,41.55
2019-04-01T02:50:32.756Z,41.54
2019-04-01T02:51:40.935Z,41.49
2019-04-01T02:52:49.149Z,41.60
2019-04-01T02:53:57.333Z,41.72
2019-04-01T02:55:07.510Z,41.85
2019-04-01T02:56:15.791Z,41.88
2019-04-01T02:57:24.167Z,42.02
2019-04-01T02:58:32.278Z,42.15
2019-04-01T02:59:40.281Z,42.17
2019-04-01T03:00:48.132Z,42.08
2019-04-01T03:01:56.321Z,42.21
2019-04-01T03:03:04.581Z,42.04
2019-04-01T03:04:12.954Z,42.03
2019-04-01T03:05:21.916Z,41.88
2019-04-01T03:06:29.917Z,41.89
2019-04-01T03:07:38.270Z,41.88
2019-04-01T03:08:46.510Z,42.02
2019-04-01T03:09:54.764Z,41.97
2019-04-01T03:11:02.754Z,41.94
2019-04-01T03:12:12.019Z,41.83
2019-04-01T03:13:20.173Z,41.68
2019-04-01T03:14:28.816Z,41.59
2019-04-01T03:15:36.732Z,41.57
2019-04-01T03:16:45.017Z,41.66
2019-04-01T03:17:53.004Z,41.66
2019-04-01T03:19:01.097Z,41.77
2019-04-01T03:20:09.601Z,41.63
2019-04-01T03:21:17.523Z,41.64
2019-04-01T03:22:25.823Z,41.64
2019-04-01T03:23:34.100Z,41.47
2019-04-01T03:24:42.406Z,41.42
2019-04-01T03:25:50.710Z,41.39
2019-04-01T03:27:00.143Z,41.47
2019-04-01T03:28:08.215Z,41.39
2019-04-01T03:29:16.460Z,41.38
2019-04-01T03:30:24.705Z,41.43
2019-04-01T03:31:32.815Z,41.39
2019-04-01T03:32:45.173Z,41.32
2019-04-01T03:33:51.030Z,41.29
2019-04-01T03:34:58.978Z,41.33
2019-04-01T03:36:06.954Z,41.37
2019-04-01T03:37:15.361Z,41.33
2019-04-01T03:38:27.675Z,41.27
2019-04-01T03:39:33.749Z,41.17
2019-04-01T03:40:41.874Z,41.03
2019-04-01T03:41:50.036Z,41.13
2019-04-01T03:42:58.501Z,41.14
2019-04-01T03:44:06.920Z,41.31
2019-04-01T03:45:15.034Z,41.26
2019-04-01T03:46:23.037Z,41.28
2019-04-01T03:47:31.043Z,41.41
2019-04-01T03:48:39.100Z,41.22
2019-04-01T03:49:47.026Z,41.36
2019-04-01T03:50:55.344Z,41.18
2019-04-01T03:52:03.446Z,41.09
2019-04-01T03:53:12.122Z,41.02
2019-04-01T03:54:20.125Z,41.18
2019-04-01T03:55:28.451Z,41.15
2019-04-01T03:56:36.400Z,41.17
2019-04-01T03:57:44.527Z,41.21
2019-04-01T03:58:52.866Z,41.16
2019-04-01T04:00:01.006Z,41.13
2019-04-01T04:01:08.996Z,41.11
2019-04-01T04:02:16.974Z,41.07
2019-04-01T04:03:25.850Z,40.98
2019-04-01T04:04:33.746Z,40.99
2019-04-01T04:05:41.862Z,40.95
2019-04-01T04:06:50.064Z,40.90
2019-04-01T04:07:58.085Z,40.86
2019-04-01T04:09:07.402Z,40.90
2019-04-01T04:10:15.813Z,40.84
2019-04-01T04:11:23.906Z,40.84
2019-04-01T04:12:31.974Z,40.90
2019-04-01T04:13:39.996Z,40.80
2019-04-01T04:14:51.247Z,40.80
2019-04-01T04:15:58.040Z,40.70
2019-04-01T04:17:06.027Z,40.70
2019-04-01T04:18:14.121Z,40.68
2019-04-01T04:19:22.291Z,40.68
2019-04-01T04:20:30.520Z,40.71
2019-04-01T04:21:38.555Z,40.70
2019-04-01T04:22:46.994Z,40.81
2019-04-01T04:23:55.054Z,40.83
2019-04-01T04:25:03.416Z,40.88
2019-04-01T04:26:11.935Z,40.85
2019-04-01T04:27:20.139Z,40.75
2019-04-01T04:28:28.579Z,40.78
2019-04-01T04:29:36.624Z,40.75
2019-04-01T04:30:44.750Z,40.74
2019-04-01T04:31:52.654Z,40.75
2019-04-01T04:33:00.776Z,40.77
2019-04-01T04:34:08.978Z,40.90
2019-04-01T04:35:17.113Z,40.97
2019-04-01T04:36:25.204Z,41.04
2019-04-01T04:37:34.532Z,40.99
2019-04-01T04:38:42.941Z,41.11
2019-04-01T04:39:50.937Z,41.25
2019-04-01T04:40:58.890Z,41.25
2019-04-01T04:42:06.876Z,41.27
2019-04-01T04:43:14.793Z,41.34
2019-04-01T04:44:22.896Z,41.28
2019-04-01T04:45:30.991Z,41.25
2019-04-01T04:46:38.908Z,41.37
2019-04-01T04:47:47.021Z,41.37
2019-04-01T04:48:55.186Z,41.36
2019-04-01T04:50:03.212Z,41.21
2019-04-01T04:51:11.015Z,41.15
2019-04-01T04:52:19.107Z,40.98
2019-04-01T04:53:27.119Z,41.12
2019-04-01T04:54:35.882Z,41.13
2019-04-01T04:55:44.009Z,41.04
2019-04-01T04:56:51.978Z,41.33
2019-04-01T04:58:00.096Z,41.23
2019-04-01T04:59:08.147Z,41.53
2019-04-01T05:00:16.728Z,41.72
2019-04-01T05:01:24.910Z,41.66
2019-04-01T05:02:33.488Z,41.88
2019-04-01T05:03:41.953Z,41.82
2019-04-01T05:04:50.092Z,41.80
2019-04-01T05:05:58.861Z,41.73
2019-04-01T05:07:07.162Z,41.78
2019-04-01T05:08:15.201Z,41.79
2019-04-01T05:09:23.208Z,41.77
2019-04-01T05:10:31.907Z,41.72
2019-04-01T05:11:39.750Z,41.67
2019-04-01T05:12:48.031Z,41.62
2019-04-01T05:13:58.563Z,41.56
2019-04-01T05:15:08.246Z,41.67
2019-04-01T05:16:16.380Z,41.71
2019-04-01T05:17:24.450Z,41.65
2019-04-01T05:18:32.574Z,41.73
2019-04-01T05:19:40.422Z,41.72
2019-04-01T05:20:48.946Z,41.56
2019-04-01T05:21:58.368Z,41.69
2019-04-01T05:23:07.640Z,41.56
2019-04-01T05:24:16.950Z,41.54
2019-04-01T05:25:25.469Z,41.64
2019-04-01T05:26:36.134Z,41.81
2019-04-01T05:27:45.603Z,41.72
2019-04-01T05:28:55.183Z,41.73
2019-04-01T05:30:06.753Z,41.70
2019-04-01T05:31:17.510Z,41.53
2019-04-01T05:32:27.569Z,41.43
2019-04-01T05:33:37.726Z,41.55
2019-04-01T05:34:47.131Z,41.34
2019-04-01T05:35:55.228Z,41.37
2019-04-01T05:37:03.424Z,41.29
2019-04-01T05:38:11.638Z,41.36
2019-04-01T05:39:20.542Z,41.39
2019-04-01T05:40:28.962Z,41.32
2019-04-01T05:41:37.687Z,41.40
2019-04-01T05:42:45.905Z,41.43
2019-04-01T05:43:54.773Z,41.38
2019-04-01T05:45:02.931Z,41.42
2019-04-01T05:46:11.167Z,41.47
2019-04-01T05:47:21.039Z,41.14
2019-04-01T05:48:30.945Z,41.20
2019-04-01T05:49:39.137Z,41.15
2019-04-01T05:50:47.549Z,41.00
2019-04-01T05:51:55.648Z,41.18
2019-04-01T05:53:03.537Z,41.22
2019-04-01T05:54:11.537Z,41.16
2019-04-01T05:55:19.648Z,41.24
2019-04-01T05:56:27.659Z,41.22
2019-04-01T05:57:36.010Z,41.10
2019-04-01T05:58:44.363Z,41.13
2019-04-01T05:59:52.473Z,41.04
2019-04-01T06:01:08.511Z,41.11
2019-04-01T06:02:16.589Z,41.01
2019-04-01T06:03:25.744Z,40.83
2019-04-01T06:04:33.783Z,40.91
2019-04-01T06:05:41.911Z,40.90
2019-04-01T06:06:51.968Z,40.85
2019-04-01T06:08:00.179Z,40.78
2019-04-01T06:09:09.650Z,40.55
2019-04-01T06:10:18.102Z,40.59
2019-04-01T06:11:26.226Z,40.65
2019-04-01T06:12:34.533Z,40.73
2019-04-01T06:13:43.114Z,40.86
2019-04-01T06:14:51.508Z,40.77
2019-04-01T06:15:59.829Z,40.58
2019-04-01T06:17:08.106Z,40.38
2019-04-01T06:18:16.534Z,40.55
2019-04-01T06:19:25.345Z,40.48
2019-04-01T06:20:33.633Z,40.31
2019-04-01T06:21:42.229Z,39.90
2019-04-01T06:22:50.721Z,39.76
2019-04-01T06:23:59.672Z,39.70
2019-04-01T06:25:08.880Z,39.71
2019-04-01T06:26:17.476Z,39.55
2019-04-01T06:27:26.327Z,39.33
2019-04-01T06:28:35.447Z,39.41
2019-04-01T06:29:45.456Z,39.63
2019-04-01T06:30:53.957Z,39.75
2019-04-01T06:32:02.310Z,39.50
2019-04-01T06:33:10.689Z,39.49
2019-04-01T06:34:20.375Z,39.19
2019-04-01T06:35:28.557Z,39.37
2019-04-01T06:36:38.804Z,39.29
2019-04-01T06:37:46.563Z,38.66
2019-04-01T06:38:54.783Z,38.04
2019-04-01T06:40:03.575Z,37.85
2019-04-01T06:41:11.775Z,38.01
2019-04-01T06:42:20.858Z,38.02
2019-04-01T06:43:29.062Z,37.91
2019-04-01T06:44:37.152Z,37.80
2019-04-01T06:45:45.530Z,38.14
2019-04-01T06:46:53.718Z,38.06
2019-04-01T06:48:03.845Z,37.48
2019-04-01T06:49:12.346Z,37.61
2019-04-01T06:50:21.042Z,37.40
2019-04-01T06:51:29.601Z,37.17
2019-04-01T06:52:37.694Z,37.18
2019-04-01T06:53:46.059Z,37.25
2019-04-01T06:54:54.351Z,37.22
2019-04-01T06:56:02.566Z,37.29
2019-04-01T06:57:10.904Z,37.20
2019-04-01T06:58:19.881Z,37.00
2019-04-01T06:59:28.061Z,37.15
2019-04-01T07:00:36.166Z,36.78
2019-04-01T07:01:44.501Z,37.14
2019-04-01T07:02:52.988Z,37.12
2019-04-01T07:04:01.090Z,37.15
2019-04-01T07:05:12.410Z,36.91
2019-04-01T07:06:19.022Z,36.99
2019-04-01T07:07:28.844Z,36.63
2019-04-01T07:08:37.190Z,36.70
2019-04-01T07:09:45.755Z,36.96
2019-04-01T07:10:54.468Z,36.72
2019-04-01T07:12:02.757Z,36.46
2019-04-01T07:13:10.776Z,36.62
2019-04-01T07:14:19.331Z,36.51
2019-04-01T07:15:27.663Z,36.58
2019-04-01T07:16:35.897Z,36.18
2019-04-01T07:17:44.488Z,36.17
2019-04-01T07:18:52.595Z,35.98
2019-04-01T07:20:00.534Z,35.75
2019-04-01T07:21:08.634Z,36.05
2019-04-01T07:22:17.296Z,36.29
2019-04-01T07:23:25.973Z,35.92
2019-04-01T07:24:34.013Z,35.56
2019-04-01T07:25:43.571Z,35.30
2019-04-01T07:26:51.566Z,35.04
2019-04-01T07:27:59.756Z,35.02
2019-04-01T07:29:07.731Z,35.02
2019-04-01T07:30:16.845Z,35.37
2019-04-01T07:31:24.970Z,35.26
2019-04-01T07:32:33.751Z,35.03
2019-04-01T07:33:41.851Z,34.71
2019-04-01T07:34:51.589Z,34.54
2019-04-01T07:35:59.889Z,34.78
2019-04-01T07:37:08.210Z,34.49
2019-04-01T07:38:16.538Z,34.31
2019-04-01T07:39:25.003Z,34.01
2019-04-01T07:40:33.082Z,33.96
2019-04-01T07:41:41.499Z,34.00
2019-04-01T07:42:50.001Z,33.97
2019-04-01T07:43:58.265Z,33.81
2019-04-01T07:45:08.272Z,33.21
2019-04-01T07:46:16.777Z,33.20
2019-04-01T07:47:24.875Z,33.19
2019-04-01T07:48:33.240Z,33.37
2019-04-01T07:49:41.550Z,33.48
2019-04-01T07:50:49.572Z,33.59
2019-04-01T07:51:57.788Z,33.32
2019-04-01T07:53:05.838Z,33.03
2019-04-01T07:54:14.056Z,32.50
2019-04-01T07:55:22.414Z,31.75
2019-04-01T07:56:30.543Z,31.64
2019-04-01T07:57:38.789Z,31.70
2019-04-01T07:58:47.353Z,31.54
2019-04-01T07:59:56.961Z,31.56
2019-04-01T08:01:05.427Z,31.38
2019-04-01T08:02:13.582Z,31.45
2019-04-01T08:03:21.819Z,31.25
2019-04-01T08:04:29.766Z,31.33
2019-04-01T08:05:37.912Z,31.45
2019-04-01T08:06:46.075Z,31.76
2019-04-01T08:07:54.606Z,31.58
2019-04-01T08:09:02.944Z,31.65
2019-04-01T08:10:11.946Z,31.26
2019-04-01T08:11:20.016Z,31.40
2019-04-01T08:12:28.388Z,31.54
2019-04-01T08:13:36.554Z,31.66
2019-04-01T08:14:45.111Z,31.70
2019-04-01T08:15:53.347Z,31.91
2019-04-01T08:17:01.513Z,32.24
2019-04-01T08:18:09.797Z,31.64
2019-04-01T08:19:18.061Z,31.92
2019-04-01T08:20:26.181Z,31.90
2019-04-01T08:21:34.737Z,31.87
2019-04-01T08:22:43.379Z,32.07
2019-04-01T08:23:51.856Z,31.59
2019-04-01T08:24:59.943Z,31.95
2019-04-01T08:26:08.028Z,31.96
2019-04-01T08:27:16.088Z,31.88
2019-04-01T08:28:24.235Z,31.92
2019-04-01T08:29:32.436Z,31.61
2019-04-01T08:30:40.606Z,31.08
2019-04-01T08:31:49.035Z,30.74
2019-04-01T08:32:57.065Z,30.77
2019-04-01T08:34:05.700Z,30.99
2019-04-01T08:35:14.045Z,31.37
2019-04-01T08:36:22.352Z,31.39
2019-04-01T08:37:30.971Z,31.43
2019-04-01T08:38:39.247Z,31.55
2019-04-01T08:39:47.556Z,31.45
2019-04-01T08:40:55.573Z,31.68
2019-04-01T08:42:04.293Z,31.57
2019-04-01T08:43:12.862Z,31.46
2019-04-01T08:44:21.014Z,31.47
2019-04-01T08:45:29.262Z,31.34
2019-04-01T08:46:37.240Z,30.87
2019-04-01T08:47:46.095Z,30.88
2019-04-01T08:48:54.315Z,30.50
2019-04-01T08:50:04.240Z,30.28
2019-04-01T08:51:12.515Z,30.29
2019-04-01T08:52:20.845Z,30.49
2019-04-01T08:53:29.841Z,30.13
2019-04-01T08:54:37.945Z,30.35
2019-04-01T08:55:46.142Z,30.21
2019-04-01T08:56:54.137Z,30.12
2019-04-01T08:58:02.323Z,29.87
2019-04-01T08:59:10.932Z,29.64
2019-04-01T09:00:19.151Z,29.69
2019-04-01T09:01:34.959Z,29.23
2019-04-01T09:02:37.116Z,29.51
2019-04-01T09:03:45.079Z,29.37
2019-04-01T09:04:53.756Z,28.78
2019-04-01T09:06:01.791Z,28.53
2019-04-01T09:07:10.083Z,28.66
2019-04-01T09:08:17.975Z,28.71
2019-04-01T09:09:28.781Z,28.89
2019-04-01T09:10:37.185Z,28.77
2019-04-01T09:11:45.923Z,28.72
2019-04-01T09:12:54.760Z,28.75
2019-04-01T09:14:03.968Z,28.90
2019-04-01T09:15:12.188Z,28.59
2019-04-01T09:16:21.928Z,28.59
2019-04-01T09:17:30.148Z,28.84
2019-04-01T09:18:38.418Z,28.47
2019-04-01T09:19:46.452Z,28.82
2019-04-01T09:20:54.982Z,28.64
2019-04-01T09:22:03.149Z,28.70
2019-04-01T09:23:11.507Z,28.59
2019-04-01T09:24:19.453Z,28.47
2019-04-01T09:25:27.615Z,28.72
2019-04-01T09:26:35.588Z,28.69
2019-04-01T09:27:43.833Z,28.54
2019-04-01T09:28:51.951Z,28.37
2019-04-01T09:30:00.492Z,28.60
2019-04-01T09:31:08.461Z,29.08
2019-04-01T09:32:16.496Z,29.15
2019-04-01T09:33:24.461Z,28.69
2019-04-01T09:34:32.807Z,28.80
2019-04-01T09:35:41.190Z,28.41
2019-04-01T09:36:49.522Z,28.40
2019-04-01T09:37:58.039Z,27.87
2019-04-01T09:39:07.888Z,28.27
2019-04-01T09:40:16.261Z,27.94
2019-04-01T09:41:24.659Z,27.81
2019-04-01T09:42:32.791Z,28.09
2019-04-01T09:43:41.160Z,28.44
2019-04-01T09:44:49.423Z,28.54
2019-04-01T09:45:57.557Z,28.87
2019-04-01T09:47:05.870Z,28.56
2019-04-01T09:48:14.312Z,28.20
2019-04-01T09:49:22.465Z,28.35
2019-04-01T09:50:31.074Z,28.18
2019-04-01T09:51:48.554Z,28.12
2019-04-01T09:52:48.709Z,27.89
2019-04-01T09:53:56.946Z,27.83
2019-04-01T09:55:06.438Z,28.08
2019-04-01T09:56:14.834Z,28.16
2019-04-01T09:57:22.934Z,28.38
2019-04-01T09:58:31.447Z,27.73
2019-04-01T09:59:39.335Z,27.63
2019-04-01T10:00:52.861Z,28.22
2019-04-01T10:01:58.701Z,28.28
2019-04-01T10:03:07.583Z,27.43
2019-04-01T10:04:15.810Z,26.90
2019-04-01T10:05:24.213Z,27.43
2019-04-01T10:06:32.313Z,27.42
2019-04-01T10:07:40.534Z,27.27
2019-04-01T10:08:49.046Z,26.99
2019-04-01T10:09:57.140Z,27.20
2019-04-01T10:11:05.416Z,27.40
2019-04-01T10:12:13.643Z,26.94
2019-04-01T10:13:21.757Z,27.01
2019-04-01T10:14:30.116Z,27.15
2019-04-01T10:15:38.415Z,27.72
2019-04-01T10:16:46.375Z,27.16
2019-04-01T10:17:54.503Z,27.56
2019-04-01T10:19:02.691Z,27.36
2019-04-01T10:20:11.336Z,26.79
2019-04-01T10:21:19.615Z,26.47
2019-04-01T10:22:27.676Z,26.08
2019-04-01T10:23:35.807Z,25.65
2019-04-01T10:24:43.698Z,24.85
2019-04-01T10:25:52.010Z,25.44
2019-04-01T10:27:00.807Z,24.80
2019-04-01T10:28:09.169Z,24.46
2019-04-01T10:29:17.169Z,24.14
2019-04-01T10:30:26.067Z,23.39
2019-04-01T10:31:34.311Z,23.05
2019-04-01T10:32:42.203Z,22.35
2019-04-01T10:33:50.175Z,21.94
2019-04-01T10:34:58.020Z,21.53
2019-04-01T10:36:06.183Z,21.74
2019-04-01T10:37:14.201Z,21.39
2019-04-01T10:38:22.592Z,21.04
2019-04-01T10:39:30.640Z,20.42
2019-04-01T10:40:38.486Z,20.15
2019-04-01T10:41:46.360Z,19.76
2019-04-01T10:42:54.506Z,19.70
2019-04-01T10:44:04.876Z,19.51
2019-04-01T10:45:13.102Z,19.19
2019-04-01T10:46:21.150Z,18.58
2019-04-01T10:47:29.281Z,18.39
2019-04-01T10:48:37.448Z,18.18
2019-04-01T10:49:45.540Z,17.51
2019-04-01T10:50:53.615Z,17.59
2019-04-01T10:52:01.874Z,17.33
2019-04-01T10:53:09.814Z,16.75
2019-04-01T10:54:18.255Z,16.90
2019-04-01T10:55:26.432Z,16.80
2019-04-01T10:56:35.997Z,16.82
2019-04-01T10:57:44.187Z,16.43
2019-04-01T10:58:52.465Z,15.98
2019-04-01T11:00:00.482Z,15.95
2019-04-01T11:01:08.989Z,15.84
2019-04-01T11:02:18.568Z,15.87
2019-04-01T11:03:26.836Z,15.75
2019-04-01T11:04:34.815Z,15.75
2019-04-01T11:05:42.962Z,15.47
2019-04-01T11:06:51.295Z,15.59
2019-04-01T11:07:59.448Z,15.06
2019-04-01T11:09:11.181Z,14.58
2019-04-01T11:10:19.815Z,14.71
2019-04-01T11:11:28.191Z,14.50
2019-04-01T11:12:36.476Z,14.22
2019-04-01T11:13:44.491Z,14.43
2019-04-01T11:14:52.682Z,14.16
2019-04-01T11:16:00.650Z,14.22
2019-04-01T11:17:08.790Z,13.83
2019-04-01T11:18:16.855Z,13.66
2019-04-01T11:19:25.165Z,13.98
2019-04-01T11:20:33.209Z,13.89
2019-04-01T11:21:41.247Z,13.69
2019-04-01T11:22:49.447Z,13.64
2019-04-01T11:23:57.645Z,13.67
2019-04-01T11:25:09.221Z,13.56
2019-04-01T11:26:17.831Z,13.18
2019-04-01T11:27:26.043Z,13.24
2019-04-01T11:28:34.747Z,13.47
2019-04-01T11:29:43.053Z,13.37
2019-04-01T11:30:51.565Z,13.02
2019-04-01T11:31:59.790Z,13.04
2019-04-01T11:33:08.195Z,12.92
2019-04-01T11:34:16.707Z,12.49
2019-04-01T11:35:24.757Z,12.86
2019-04-01T11:36:32.888Z,12.59
2019-04-01T11:37:41.702Z,12.75
2019-04-01T11:38:50.134Z,12.65
2019-04-01T11:39:58.385Z,12.18
2019-04-01T11:41:06.917Z,12.42
2019-04-01T11:42:15.747Z,12.20
2019-04-01T11:43:23.990Z,12.22
2019-04-01T11:44:32.231Z,11.97
2019-04-01T11:45:40.743Z,12.24
2019-04-01T11:46:48.964Z,11.96
2019-04-01T11:47:57.218Z,11.84
2019-04-01T11:49:05.614Z,11.41
2019-04-01T11:50:13.932Z,11.53
2019-04-01T11:51:32.401Z,11.70
2019-04-01T11:52:31.748Z,11.17
2019-04-01T11:53:39.952Z,11.13
2019-04-01T11:54:48.020Z,11.46
2019-04-01T11:55:56.099Z,11.24
2019-04-01T11:57:05.181Z,11.10
2019-04-01T11:58:13.560Z,11.40
2019-04-01T11:59:21.654Z,11.52
2019-04-01T12:00:29.654Z,11.29
2019-04-01T12:01:37.767Z,11.33
2019-04-01T12:02:46.298Z,11.16
2019-04-01T12:03:54.759Z,10.67
2019-04-01T12:05:02.857Z,10.81
2019-04-01T12:06:10.981Z,10.77
2019-04-01T12:07:18.998Z,10.60
2019-04-01T12:08:27.462Z,10.85
2019-04-01T12:09:35.558Z,10.55
2019-04-01T12:10:43.961Z,10.61
2019-04-01T12:11:52.054Z,10.72
2019-04-01T12:13:00.433Z,10.30
2019-04-01T12:14:08.435Z,10.42
2019-04-01T12:15:16.591Z,10.22
2019-04-01T12:16:24.708Z,10.17
2019-04-01T12:17:32.785Z,9.96
2019-04-01T12:18:41.156Z,10.09
2019-04-01T12:19:49.142Z,10.00
2019-04-01T12:20:57.151Z,10.08
2019-04-01T12:22:05.349Z,10.13
2019-04-01T12:23:13.737Z,9.88
2019-04-01T12:24:22.453Z,9.83
2019-04-01T12:25:30.542Z,10.04
2019-04-01T12:26:38.476Z,9.94
2019-04-01T12:27:46.622Z,9.92
2019-04-01T12:28:54.631Z,9.64
2019-04-01T12:30:02.665Z,9.71
2019-04-01T12:31:12.870Z,9.71
2019-04-01T12:32:20.952Z,9.79
2019-04-01T12:33:29.208Z,9.48
2019-04-01T12:34:36.969Z,9.32
2019-04-01T12:35:44.932Z,9.50
2019-04-01T12:36:52.985Z,9.29
2019-04-01T12:38:01.029Z,9.67
2019-04-01T12:39:09.830Z,9.43
2019-04-01T12:40:18.297Z,9.52
2019-04-01T12:41:26.297Z,9.47
2019-04-01T12:42:34.574Z,9.30
2019-04-01T12:43:43.079Z,9.50
2019-04-01T12:44:51.119Z,9.57
2019-04-01T12:45:59.194Z,9.33
2019-04-01T12:47:07.671Z,9.28
2019-04-01T12:48:16.034Z,9.19
2019-04-01T12:49:24.180Z,9.08
2019-04-01T12:50:32.272Z,8.74
2019-04-01T12:51:40.371Z,8.87
2019-04-01T12:52:49.132Z,9.13
2019-04-01T12:53:57.481Z,9.13
2019-04-01T12:55:07.779Z,9.01
2019-04-01T12:56:15.915Z,8.94
2019-04-01T12:57:24.350Z,9.10
2019-04-01T12:58:32.575Z,8.87
2019-04-01T12:59:40.598Z,8.89
2019-04-01T13:00:48.872Z,8.89
2019-04-01T13:01:57.096Z,8.99
2019-04-01T13:03:05.333Z,8.91
2019-04-01T13:04:13.528Z,8.88
2019-04-01T13:05:22.070Z,9.12
2019-04-01T13:06:31.051Z,9.01
2019-04-01T13:07:39.117Z,8.83
2019-04-01T13:08:47.226Z,8.89
2019-04-01T13:09:57.167Z,8.76
2019-04-01T13:11:05.497Z,8.66
2019-04-01T13:12:13.949Z,8.73
2019-04-01T13:13:22.802Z,8.55
2019-04-01T13:14:30.988Z,8.65
2019-04-01T13:15:39.003Z,8.72
2019-04-01T13:16:47.178Z,8.74
2019-04-01T13:17:55.275Z,8.64
2019-04-01T13:19:03.364Z,8.50
2019-04-01T13:20:11.742Z,8.57
2019-04-01T13:21:19.752Z,8.56
2019-04-01T13:22:27.824Z,8.47
2019-04-01T13:23:36.094Z,8.51
2019-04-01T13:24:44.920Z,8.47
2019-04-01T13:25:53.080Z,8.40
2019-04-01T13:27:01.229Z,8.14
2019-04-01T13:28:09.452Z,8.41
2019-04-01T13:29:17.905Z,8.50
2019-04-01T13:30:26.381Z,8.49
2019-04-01T13:31:34.630Z,8.57
2019-04-01T13:32:42.731Z,8.48
2019-04-01T13:33:50.917Z,8.57
2019-04-01T13:34:59.276Z,8.64
2019-04-01T13:36:08.091Z,8.54
2019-04-01T13:37:18.218Z,8.49
2019-04-01T13:38:26.849Z,8.49
2019-04-01T13:39:35.307Z,8.58
2019-04-01T13:40:44.429Z,8.47
2019-04-01T13:41:56.075Z,8.59
2019-04-01T13:43:04.573Z,8.56
2019-04-01T13:44:12.619Z,8.38
2019-04-01T13:45:22.597Z,8.50
2019-04-01T13:46:30.902Z,8.57
2019-04-01T13:47:41.279Z,8.33
2019-04-01T13:48:57.470Z,8.42
2019-04-01T13:49:58.777Z,8.35
2019-04-01T13:51:07.262Z,8.62
2019-04-01T13:52:15.969Z,8.59
2019-04-01T13:53:24.242Z,8.67
2019-04-01T13:54:34.072Z,8.69
2019-04-01T13:55:42.630Z,8.50
2019-04-01T13:56:50.566Z,8.15
2019-04-01T13:57:58.602Z,8.34
2019-04-01T13:59:09.685Z,8.19
2019-04-01T14:00:17.679Z,8.40
2019-04-01T14:01:26.469Z,8.21
2019-04-01T14:02:34.963Z,8.25
2019-04-01T14:03:43.093Z,8.21
2019-04-01T14:04:51.297Z,8.19
2019-04-01T14:05:59.638Z,8.13
2019-04-01T14:07:08.001Z,7.97
2019-04-01T14:08:17.758Z,8.20
2019-04-01T14:09:26.044Z,8.15
2019-04-01T14:10:34.421Z,8.25
2019-04-01T14:11:42.728Z,8.37
2019-04-01T14:12:51.157Z,8.47
2019-04-01T14:13:59.458Z,8.42
2019-04-01T14:15:10.912Z,8.30
2019-04-01T14:16:19.278Z,8.29
2019-04-01T14:17:27.375Z,8.29
2019-04-01T14:18:35.548Z,8.30
2019-04-01T14:19:43.884Z,7.97
2019-04-01T14:20:51.911Z,7.97
2019-04-01T14:22:00.369Z,8.03
2019-04-01T14:23:08.966Z,7.99
2019-04-01T14:24:17.839Z,7.77
2019-04-01T14:25:26.400Z,7.83
2019-04-01T14:26:34.905Z,7.84
2019-04-01T14:27:43.391Z,7.83
2019-04-01T14:28:51.928Z,7.90
2019-04-01T14:30:00.247Z,7.91
2019-04-01T14:31:08.447Z,7.96
2019-04-01T14:32:18.210Z,7.90
2019-04-01T14:33:26.610Z,7.95
2019-04-01T14:34:35.576Z,8.09
2019-04-01T14:35:45.329Z,8.16
2019-04-01T14:36:53.708Z,8.07
2019-04-01T14:38:02.331Z,8.13
2019-04-01T14:39:11.041Z,7.92
2019-04-01T14:40:20.108Z,8.13
2019-04-01T14:41:28.627Z,8.07
2019-04-01T14:42:37.464Z,8.30
2019-04-01T14:43:47.438Z,7.95
2019-04-01T14:44:59.935Z,8.13
2019-04-01T14:46:07.844Z,7.88